Time;durP1;ratioP1;P1;durP2;ratioP2;P2;SDS_P1;SDS_P2;PMS_P1;PMS_P2;Temp;Humidity;BMP_temperature;BMP_pressure;BME280_temperature;BME280_humidity;BME280_pressure;Samples;Min_cycle;Max_cycle;Signal;HPM_P1;HPM_P2
2022/03/08 00:00:53;;;;;;;48.63;24.33;;;;;;;-144.65;100.00;64500.88;5083434;28;20017;-74
2022/03/08 00:03:19;;;;;;;46.85;23.77;;;;;;;-144.65;100.00;64500.88;5087165;28;20031;-73
2022/03/08 00:05:45;;;;;;;46.22;24.73;;;;;;;-144.65;100.00;64500.88;5083565;28;20024;-74
2022/03/08 00:08:10;;;;;;;42.70;22.92;;;;;;;-144.65;100.00;64500.88;5080728;28;20016;-73
2022/03/08 00:10:36;;;;;;;48.70;24.90;;;;;;;-144.65;100.00;64500.88;5080838;28;20035;-73
2022/03/08 00:13:01;;;;;;;52.55;24.27;;;;;;;-144.65;100.00;64500.88;5083473;28;20380;-73
2022/03/08 00:15:27;;;;;;;43.03;23.42;;;;;;;-144.65;100.00;64500.88;5082124;28;20020;-74
2022/03/08 00:17:55;;;;;;;49.88;24.65;;;;;;;-144.65;100.00;64500.88;5083049;28;20020;-73
2022/03/08 00:20:21;;;;;;;47.97;24.92;;;;;;;-144.65;100.00;64500.88;5081635;28;20559;-73
2022/03/08 00:22:47;;;;;;;44.92;23.23;;;;;;;-144.65;100.00;64500.88;5084330;28;20016;-74
2022/03/08 00:25:13;;;;;;;42.47;22.05;;;;;;;-144.65;100.00;64500.88;5082474;28;20019;-73
2022/03/08 00:27:45;;;;;;;43.90;22.98;;;;;;;-144.65;100.00;64500.88;5078911;28;20115;-73
2022/03/08 00:30:12;;;;;;;45.80;23.45;;;;;;;-144.65;100.00;64500.88;5085025;28;20032;-73
2022/03/08 00:32:38;;;;;;;42.13;22.35;;;;;;;-144.65;100.00;64500.88;5081157;28;20027;-73
2022/03/08 00:35:04;;;;;;;42.03;23.50;;;;;;;-144.65;100.00;64500.88;5086901;28;20028;-73
2022/03/08 00:37:29;;;;;;;48.17;24.05;;;;;;;-144.65;100.00;64500.88;5093297;28;20016;-73
2022/03/08 00:39:55;;;;;;;42.75;22.42;;;;;;;-144.65;100.00;64500.88;5093357;28;20496;-74
2022/03/08 00:42:20;;;;;;;41.50;22.75;;;;;;;-144.65;100.00;64500.88;5093306;28;20066;-73
2022/03/08 00:44:46;;;;;;;47.55;24.52;;;;;;;-144.65;100.00;64500.88;5093221;28;20023;-73
2022/03/08 00:47:12;;;;;;;45.45;22.20;;;;;;;-144.65;100.00;64500.88;5090789;28;20028;-74
2022/03/08 00:49:38;;;;;;;56.08;27.15;;;;;;;-144.65;100.00;64500.88;5071816;28;20032;-73
2022/03/08 00:52:06;;;;;;;41.75;22.50;;;;;;;-144.65;100.00;64500.88;5072819;28;20032;-74
2022/03/08 00:54:33;;;;;;;43.17;23.30;;;;;;;-144.65;100.00;64500.88;5072524;28;20032;-74
2022/03/08 00:56:59;;;;;;;45.67;25.30;;;;;;;-144.65;100.00;64500.88;5071950;28;20029;-74
2022/03/08 00:59:24;;;;;;;42.47;22.42;;;;;;;-144.65;100.00;64500.88;5071668;28;20028;-74
2022/03/08 01:01:49;;;;;;;44.80;24.67;;;;;;;-144.65;100.00;64500.88;5072571;28;20028;-73
2022/03/08 01:04:15;;;;;;;45.95;23.48;;;;;;;-144.65;100.00;64500.88;5072841;28;21020;-74
2022/03/08 01:06:41;;;;;;;47.55;23.45;;;;;;;-144.65;100.00;64500.88;5072379;28;20032;-73
2022/03/08 01:09:07;;;;;;;48.45;23.92;;;;;;;-144.65;100.00;64500.88;5071157;28;20094;-73
2022/03/08 01:11:33;;;;;;;49.55;22.58;;;;;;;-144.65;100.00;64500.88;5072560;28;20175;-73
2022/03/08 01:13:59;;;;;;;46.25;23.50;;;;;;;-144.65;100.00;64500.88;5071067;28;20031;-75
2022/03/08 01:16:24;;;;;;;38.63;21.35;;;;;;;-144.65;100.00;64500.88;5071119;28;20033;-74
2022/03/08 01:18:50;;;;;;;46.15;24.42;;;;;;;-144.65;100.00;64500.88;5074218;28;20662;-74
2022/03/08 01:21:16;;;;;;;45.35;23.92;;;;;;;-144.65;100.00;64500.88;5072323;28;20416;-74
2022/03/08 01:23:42;;;;;;;45.47;23.50;;;;;;;-144.65;100.00;64500.88;5072260;28;20033;-75
2022/03/08 01:26:08;;;;;;;45.17;24.65;;;;;;;-144.65;100.00;64500.88;5072633;28;20051;-73
2022/03/08 01:28:34;;;;;;;45.60;24.83;;;;;;;-144.65;100.00;64500.88;5070650;28;20028;-73
2022/03/08 01:31:00;;;;;;;47.80;24.85;;;;;;;-144.65;100.00;64500.88;5070400;28;20440;-74
2022/03/08 01:33:25;;;;;;;47.55;24.13;;;;;;;-144.65;100.00;64500.88;5069774;28;20027;-73
2022/03/08 01:35:51;;;;;;;58.80;27.70;;;;;;;-144.65;100.00;64500.88;5071165;28;20111;-73
2022/03/08 01:38:16;;;;;;;59.00;26.25;;;;;;;-144.65;100.00;64500.88;5071357;28;20025;-73
2022/03/08 01:40:42;;;;;;;51.72;25.80;;;;;;;-144.65;100.00;64500.88;5071187;28;20032;-74
2022/03/08 01:43:08;;;;;;;49.08;25.73;;;;;;;-144.65;100.00;64500.88;5071079;28;20028;-73
2022/03/08 01:45:34;;;;;;;52.17;25.80;;;;;;;-144.65;100.00;64500.88;5071326;28;20028;-73
2022/03/08 01:48:00;;;;;;;54.72;25.52;;;;;;;-144.65;100.00;64500.88;5071647;28;20029;-73
2022/03/08 01:50:26;;;;;;;55.13;24.10;;;;;;;-144.65;100.00;64500.88;5070454;28;20031;-73
2022/03/08 01:52:53;;;;;;;54.08;25.38;;;;;;;-144.65;100.00;64500.88;5070216;28;20048;-73
2022/03/08 01:55:19;;;;;;;46.88;25.52;;;;;;;-144.65;100.00;64500.88;5071637;28;20107;-74
2022/03/08 01:57:47;;;;;;;56.42;25.30;;;;;;;-144.65;100.00;64500.88;5071895;28;20012;-73
2022/03/08 02:00:17;;;;;;;49.63;25.10;;;;;;;-144.65;100.00;64500.88;5071471;28;20439;-74
2022/03/08 02:02:43;;;;;;;48.47;25.42;;;;;;;-144.65;100.00;64500.88;5071541;28;20123;-73
2022/03/08 02:05:09;;;;;;;50.25;25.77;;;;;;;-144.65;100.00;64500.88;5070249;28;20021;-74
2022/03/08 02:07:35;;;;;;;50.67;25.45;;;;;;;-144.65;100.00;64500.88;5069855;28;20167;-73
2022/03/08 02:10:00;;;;;;;51.38;26.13;;;;;;;-144.65;100.00;64500.88;5071732;28;20596;-74
2022/03/08 02:12:26;;;;;;;52.25;25.15;;;;;;;-144.65;100.00;64500.88;5071081;28;20039;-74
2022/03/08 02:14:51;;;;;;;47.83;25.17;;;;;;;-144.65;100.00;64500.88;5072721;28;20517;-74
2022/03/08 02:17:17;;;;;;;56.03;25.67;;;;;;;-144.65;100.00;64500.88;5071213;28;20013;-74
2022/03/08 02:19:42;;;;;;;50.80;25.00;;;;;;;-144.65;100.00;64500.88;5070919;28;20115;-74
2022/03/08 02:22:08;;;;;;;50.20;24.58;;;;;;;-144.65;100.00;64500.88;5071299;28;20078;-74
2022/03/08 02:24:33;;;;;;;48.75;23.60;;;;;;;-144.65;100.00;64500.88;5070970;28;20031;-73
2022/03/08 02:27:00;;;;;;;51.80;24.83;;;;;;;-144.65;100.00;64500.88;5071524;28;20059;-74
2022/03/08 02:29:25;;;;;;;48.03;22.50;;;;;;;-144.65;100.00;64500.88;5069937;28;20034;-73
2022/03/08 02:31:51;;;;;;;43.83;22.80;;;;;;;-144.65;100.00;64500.88;5072081;28;20025;-75
2022/03/08 02:34:16;;;;;;;40.78;21.77;;;;;;;-144.65;100.00;64500.88;5071418;28;20043;-73
2022/03/08 02:37:00;;;;;;;41.72;21.25;;;;;;;-144.65;100.00;64500.88;5070927;28;20027;-73
2022/03/08 02:39:26;;;;;;;44.80;19.92;;;;;;;-144.65;100.00;64500.88;5070957;28;20489;-74
2022/03/08 02:41:51;;;;;;;35.80;19.05;;;;;;;-144.65;100.00;64500.88;5070852;28;20029;-74
2022/03/08 02:44:16;;;;;;;42.28;21.85;;;;;;;-144.65;100.00;64500.88;5069677;28;20028;-74
2022/03/08 02:46:42;;;;;;;42.17;20.25;;;;;;;-144.65;100.00;64500.88;5071020;28;20090;-73
2022/03/08 02:49:08;;;;;;;36.92;19.08;;;;;;;-144.65;100.00;64500.88;5070924;28;20096;-73
2022/03/08 02:51:33;;;;;;;39.25;19.55;;;;;;;-144.65;100.00;64500.88;5071035;28;20039;-73
2022/03/08 02:53:59;;;;;;;37.83;18.70;;;;;;;-144.65;100.00;64500.88;5070592;28;20041;-73
2022/03/08 02:56:24;;;;;;;37.83;18.35;;;;;;;-144.65;100.00;64500.88;5069660;28;20120;-73
2022/03/08 02:58:50;;;;;;;42.28;21.23;;;;;;;-144.65;100.00;64500.88;5070875;28;20059;-75
2022/03/08 03:01:15;;;;;;;35.45;18.92;;;;;;;-144.65;100.00;64500.88;5070145;28;20033;-74
2022/03/08 03:03:40;;;;;;;34.80;18.10;;;;;;;-144.65;100.00;64500.88;5070339;28;20170;-75
2022/03/08 03:06:06;;;;;;;39.45;18.67;;;;;;;-144.65;100.00;64500.88;5070050;28;20039;-74
2022/03/08 03:08:31;;;;;;;38.15;19.70;;;;;;;-144.65;100.00;64500.88;5070212;28;20029;-74
2022/03/08 03:10:57;;;;;;;40.55;20.05;;;;;;;-144.65;100.00;64500.88;5071116;28;20029;-74
2022/03/08 03:13:22;;;;;;;36.25;19.67;;;;;;;-144.65;100.00;64500.88;5068934;28;20060;-74
2022/03/08 03:15:48;;;;;;;37.20;19.27;;;;;;;-144.65;100.00;64500.88;5069178;28;20025;-73
2022/03/08 03:18:13;;;;;;;32.45;18.02;;;;;;;-144.65;100.00;64500.88;5080972;28;20036;-73
2022/03/08 03:20:39;;;;;;;34.67;18.48;;;;;;;-144.65;100.00;64500.88;5085170;28;20044;-73
2022/03/08 03:23:04;;;;;;;39.63;19.85;;;;;;;-144.65;100.00;64500.88;5076704;28;20540;-73
2022/03/08 03:25:30;;;;;;;37.63;19.70;;;;;;;-144.65;100.00;64500.88;5105778;28;20063;-73
2022/03/08 03:27:57;;;;;;;42.67;19.42;;;;;;;-144.65;100.00;64500.88;5076809;28;20116;-75
2022/03/08 03:30:22;;;;;;;37.22;20.58;;;;;;;-144.65;100.00;64500.88;5070033;28;20647;-73
2022/03/08 03:32:47;;;;;;;38.03;20.67;;;;;;;-144.65;100.00;64500.88;5069794;28;20020;-74
2022/03/08 03:35:14;;;;;;;40.33;20.73;;;;;;;-144.65;100.00;64500.88;5070119;28;20457;-74
2022/03/08 03:37:40;;;;;;;39.53;20.40;;;;;;;-144.65;100.00;64500.88;5068652;28;20393;-73
2022/03/08 03:40:07;;;;;;;39.78;20.23;;;;;;;-144.65;100.00;64500.88;5083462;28;20032;-73
2022/03/08 03:42:33;;;;;;;39.00;19.77;;;;;;;-144.65;100.00;64500.88;5091623;28;20522;-75
2022/03/08 03:44:58;;;;;;;41.13;20.02;;;;;;;-144.65;100.00;64500.88;5108240;28;20024;-73
2022/03/08 03:47:24;;;;;;;35.53;18.80;;;;;;;-144.65;100.00;64500.88;5108423;28;20174;-74
2022/03/08 03:49:49;;;;;;;34.03;17.83;;;;;;;-144.65;100.00;64500.88;5092705;28;20031;-74
2022/03/08 03:52:14;;;;;;;31.75;16.70;;;;;;;-144.65;100.00;64500.88;5105752;28;20115;-74
2022/03/08 03:54:40;;;;;;;33.75;17.55;;;;;;;-144.65;100.00;64500.88;5089886;28;20048;-73
2022/03/08 03:57:07;;;;;;;35.08;16.45;;;;;;;-144.65;100.00;64500.88;5090412;28;20024;-72
2022/03/08 03:59:33;;;;;;;32.95;18.58;;;;;;;-144.65;100.00;64500.88;5089970;28;20020;-72
2022/03/08 04:01:58;;;;;;;32.00;16.95;;;;;;;-144.65;100.00;64500.88;5105609;28;20477;-73
2022/03/08 04:04:23;;;;;;;35.08;17.83;;;;;;;-144.65;100.00;64500.88;5091685;28;20039;-78
2022/03/08 04:06:49;;;;;;;41.90;18.20;;;;;;;-144.65;100.00;64500.88;5090044;28;20090;-73
2022/03/08 04:09:14;;;;;;;35.25;19.80;;;;;;;-144.65;100.00;64500.88;5089988;28;20036;-73
2022/03/08 04:11:40;;;;;;;33.85;18.83;;;;;;;-144.65;100.00;64500.88;5089827;28;20031;-73
2022/03/08 04:14:05;;;;;;;34.22;18.70;;;;;;;-144.65;100.00;64500.88;5090136;28;20032;-74
2022/03/08 04:16:31;;;;;;;40.53;19.77;;;;;;;-144.65;100.00;64500.88;5089788;28;20123;-73
2022/03/08 04:18:57;;;;;;;45.38;19.83;;;;;;;-144.65;100.00;64500.88;5089816;28;20024;-74
2022/03/08 04:21:22;;;;;;;42.75;20.33;;;;;;;-144.65;100.00;64500.88;5089760;28;20020;-72
2022/03/08 04:23:47;;;;;;;37.95;18.70;;;;;;;-144.65;100.00;64500.88;5090799;28;20076;-72
2022/03/08 04:26:13;;;;;;;43.97;20.63;;;;;;;-144.65;100.00;64500.88;5093420;28;20470;-73
2022/03/08 04:28:38;;;;;;;47.22;20.63;;;;;;;-144.65;100.00;64500.88;5094172;28;20024;-73
2022/03/08 04:31:04;;;;;;;38.95;19.02;;;;;;;-144.65;100.00;64500.88;5093357;28;20073;-75
2022/03/08 04:33:29;;;;;;;41.03;19.50;;;;;;;-144.65;100.00;64500.88;5093421;28;20107;-73
2022/03/08 04:35:55;;;;;;;36.65;19.48;;;;;;;-144.65;100.00;64500.88;5091918;28;20032;-73
2022/03/08 04:38:20;;;;;;;36.15;19.40;;;;;;;-144.65;100.00;64500.88;5091767;28;20020;-72
2022/03/08 04:40:46;;;;;;;34.17;16.90;;;;;;;-144.65;100.00;64500.88;5093057;28;20032;-73
2022/03/08 04:43:11;;;;;;;40.92;18.30;;;;;;;-144.65;100.00;64500.88;5092352;28;20500;-73
2022/03/08 04:45:37;;;;;;;34.72;17.65;;;;;;;-144.65;100.00;64500.88;5092963;28;20077;-73
2022/03/08 04:48:02;;;;;;;31.85;16.25;;;;;;;-144.65;100.00;64500.88;5092903;28;20101;-73
2022/03/08 04:50:28;;;;;;;31.70;16.63;;;;;;;-144.65;100.00;64500.88;5093011;28;20060;-73
2022/03/08 04:52:53;;;;;;;36.30;16.67;;;;;;;-144.65;100.00;64500.88;5092292;28;20101;-73
2022/03/08 04:55:20;;;;;;;27.67;15.18;;;;;;;-144.65;100.00;64500.88;5092938;28;20099;-73
2022/03/08 04:57:47;;;;;;;28.52;13.60;;;;;;;-144.65;100.00;64500.88;5093284;28;20042;-73
2022/03/08 05:00:13;;;;;;;31.75;15.68;;;;;;;-144.65;100.00;64500.88;5083526;28;20044;-74
2022/03/08 05:02:40;;;;;;;29.80;15.30;;;;;;;-144.65;100.00;64500.88;5072568;28;20110;-73
2022/03/08 05:05:10;;;;;;;38.40;14.80;;;;;;;-144.65;100.00;64500.88;5071024;28;20498;-72
2022/03/08 05:07:36;;;;;;;31.17;16.40;;;;;;;-144.65;100.00;64500.88;5072366;28;20028;-73
2022/03/08 05:10:06;;;;;;;39.15;15.07;;;;;;;-144.65;100.00;64500.88;5072327;28;20035;-72
2022/03/08 05:12:31;;;;;;;29.52;15.13;;;;;;;-144.65;100.00;64500.88;5070536;28;20025;-73
2022/03/08 05:14:57;;;;;;;26.75;14.55;;;;;;;-144.65;100.00;64500.88;5071135;28;20474;-73
2022/03/08 05:17:23;;;;;;;32.03;16.52;;;;;;;-144.65;100.00;64500.88;5091917;28;20455;-73
2022/03/08 05:19:48;;;;;;;35.00;17.40;;;;;;;-144.65;100.00;64500.88;5092361;28;20031;-73
2022/03/08 05:22:14;;;;;;;37.17;17.67;;;;;;;-144.65;100.00;64500.88;5090350;28;20024;-74
2022/03/08 05:24:40;;;;;;;30.65;16.02;;;;;;;-144.65;100.00;64500.88;5091162;28;20389;-73
2022/03/08 05:27:07;;;;;;;28.85;15.93;;;;;;;-144.65;100.00;64500.88;5092937;28;20381;-73
2022/03/08 05:29:33;;;;;;;32.97;16.85;;;;;;;-144.65;100.00;64500.88;5092478;28;20020;-73
2022/03/08 05:31:58;;;;;;;37.58;17.27;;;;;;;-144.65;100.00;64500.88;5076442;28;20043;-74
2022/03/08 05:34:23;;;;;;;34.38;16.73;;;;;;;-144.65;100.00;64500.88;5070636;28;20119;-74
2022/03/08 05:36:49;;;;;;;32.38;17.15;;;;;;;-144.65;100.00;64500.88;5071295;28;20116;-72
2022/03/08 05:39:14;;;;;;;45.60;18.77;;;;;;;-144.65;100.00;64500.88;5072143;28;20029;-74
2022/03/08 05:41:40;;;;;;;31.17;16.98;;;;;;;-144.65;100.00;64500.88;5072261;28;20024;-73
2022/03/08 05:44:05;;;;;;;30.83;16.40;;;;;;;-144.65;100.00;64500.88;5069956;28;20547;-72
2022/03/08 05:46:31;;;;;;;34.33;16.73;;;;;;;-144.65;100.00;64500.88;5071629;28;20023;-73
2022/03/08 05:48:56;;;;;;;35.75;16.60;;;;;;;-144.65;100.00;64500.88;5071205;28;20672;-73
2022/03/08 05:51:22;;;;;;;35.85;16.83;;;;;;;-144.65;100.00;64500.88;5053848;28;20024;-73
2022/03/08 05:53:47;;;;;;;33.45;16.65;;;;;;;-144.65;100.00;64500.88;5070739;28;20052;-73
2022/03/08 05:56:13;;;;;;;35.70;16.98;;;;;;;-144.65;100.00;64500.88;5072957;28;20037;-74
2022/03/08 05:58:38;;;;;;;37.67;17.13;;;;;;;-144.65;100.00;64500.88;5070984;28;20020;-71
2022/03/08 06:01:04;;;;;;;34.00;16.80;;;;;;;-144.65;100.00;64500.88;5071106;28;20422;-71
2022/03/08 06:03:29;;;;;;;36.60;17.45;;;;;;;-144.65;100.00;64500.88;5069815;28;20028;-71
2022/03/08 06:05:55;;;;;;;33.75;14.82;;;;;;;-144.65;100.00;64500.88;5071179;28;20101;-71
2022/03/08 06:08:20;;;;;;;31.90;14.45;;;;;;;-144.65;100.00;64500.88;5069779;28;20482;-71
2022/03/08 06:10:46;;;;;;;30.38;14.00;;;;;;;-144.65;100.00;64500.88;5074408;28;20750;-73
2022/03/08 06:13:11;;;;;;;36.40;15.50;;;;;;;-144.65;100.00;64500.88;5089252;28;20473;-73
2022/03/08 06:15:37;;;;;;;33.80;14.10;;;;;;;-144.65;100.00;64500.88;5082456;28;20257;-72
2022/03/08 06:18:02;;;;;;;33.65;13.80;;;;;;;-144.65;100.00;64500.88;5078009;28;20043;-72
2022/03/08 06:20:28;;;;;;;32.90;15.05;;;;;;;-144.65;100.00;64500.88;5080518;28;20039;-71
2022/03/08 06:22:54;;;;;;;30.65;14.60;;;;;;;-144.65;100.00;64500.88;5079099;28;20020;-71
2022/03/08 06:25:20;;;;;;;32.00;15.57;;;;;;;-144.65;100.00;64500.88;5078391;28;20020;-72
2022/03/08 06:27:45;;;;;;;28.83;14.10;;;;;;;-144.65;100.00;64500.88;5073998;28;20024;-71
2022/03/08 06:30:11;;;;;;;33.35;13.95;;;;;;;-144.65;100.00;64500.88;5082033;28;20020;-73
2022/03/08 06:32:36;;;;;;;26.60;14.45;;;;;;;-144.65;100.00;64500.88;5086807;28;20020;-73
2022/03/08 06:35:02;;;;;;;32.83;14.13;;;;;;;-144.65;100.00;64500.88;5078898;28;20024;-72
2022/03/08 06:37:28;;;;;;;29.85;14.82;;;;;;;-144.65;100.00;64500.88;5074945;28;20017;-72
2022/03/08 06:39:53;;;;;;;36.53;17.00;;;;;;;-144.65;100.00;64500.88;5079935;28;20023;-72
2022/03/08 06:42:19;;;;;;;33.55;15.88;;;;;;;-144.65;100.00;64500.88;5078366;28;20469;-72
2022/03/08 06:44:44;;;;;;;38.88;17.38;;;;;;;-144.65;100.00;64500.88;5071278;28;20028;-75
2022/03/08 06:47:11;;;;;;;35.22;14.00;;;;;;;-144.65;100.00;64500.88;5086997;28;20031;-74
2022/03/08 06:49:41;;;;;;;27.13;15.15;;;;;;;-144.65;100.00;64500.88;5086486;28;20028;-73
2022/03/08 06:52:08;;;;;;;36.72;17.50;;;;;;;-144.65;100.00;64500.88;5079814;28;20028;-73
2022/03/08 06:54:37;;;;;;;28.52;12.60;;;;;;;-144.65;100.00;64500.88;5079336;28;20378;-75
2022/03/08 06:57:06;;;;;;;22.92;13.55;;;;;;;-144.65;100.00;64500.88;5076333;28;20058;-74
2022/03/08 06:59:31;;;;;;;29.10;14.23;;;;;;;-144.65;100.00;64500.88;5078712;28;20031;-72
2022/03/08 07:02:00;;;;;;;52.88;15.25;;;;;;;-144.65;100.00;64500.88;5077226;28;20032;-72
2022/03/08 07:04:26;;;;;;;48.92;16.20;;;;;;;-144.65;100.00;64500.88;5086017;28;20032;-73
2022/03/08 07:06:53;;;;;;;36.95;14.95;;;;;;;-144.65;100.00;64500.88;5086356;28;20017;-73
2022/03/08 07:09:19;;;;;;;32.10;14.50;;;;;;;-144.65;100.00;64500.88;5080317;28;20479;-73
2022/03/08 07:11:47;;;;;;;33.92;13.98;;;;;;;-144.65;100.00;64500.88;5060306;28;20060;-73
2022/03/08 07:14:15;;;;;;;23.17;10.82;;;;;;;-144.65;100.00;64500.88;5075259;28;20016;-73
2022/03/08 07:16:42;;;;;;;30.10;12.73;;;;;;;-144.65;100.00;64500.88;5077063;28;20504;-75
2022/03/08 07:19:12;;;;;;;27.65;12.07;;;;;;;-144.65;100.00;64500.88;5079049;28;20029;-73
2022/03/08 07:21:41;;;;;;;26.55;12.15;;;;;;;-144.65;100.00;64500.88;5079576;28;20039;-73
2022/03/08 07:24:07;;;;;;;26.15;10.45;;;;;;;-144.65;100.00;64500.88;5083032;28;20031;-74
2022/03/08 07:26:32;;;;;;;21.48;9.77;;;;;;;-144.65;100.00;64500.88;5082533;28;20025;-73
2022/03/08 07:28:58;;;;;;;18.00;9.23;;;;;;;-144.65;100.00;64500.88;5077468;28;20366;-73
2022/03/08 07:31:24;;;;;;;17.27;7.97;;;;;;;-144.65;100.00;64500.88;5076425;28;20389;-73
2022/03/08 07:33:49;;;;;;;22.73;8.95;;;;;;;-144.65;100.00;64500.88;5068271;28;20032;-75
2022/03/08 07:36:15;;;;;;;16.80;8.82;;;;;;;-144.65;100.00;64500.88;5068314;28;20016;-73
2022/03/08 07:38:40;;;;;;;18.70;7.72;;;;;;;-144.65;100.00;64500.88;5078724;28;20024;-79
2022/03/08 07:41:06;;;;;;;12.63;7.22;;;;;;;-144.65;100.00;64500.88;5076914;28;20025;-75
2022/03/08 07:43:34;;;;;;;11.52;7.32;;;;;;;-144.65;100.00;64500.88;5078576;28;20031;-74
2022/03/08 07:46:00;;;;;;;13.65;7.57;;;;;;;-144.65;100.00;64500.88;5082910;28;20016;-73
2022/03/08 07:48:25;;;;;;;14.50;8.18;;;;;;;-144.65;100.00;64500.88;5086215;28;20024;-73
2022/03/08 07:50:50;;;;;;;12.77;7.88;;;;;;;-144.65;100.00;64500.88;5086634;28;20441;-73
2022/03/08 07:53:16;;;;;;;42.90;21.77;;;;;;;-144.65;100.00;64500.88;5078716;28;20048;-73
2022/03/08 07:55:41;;;;;;;22.65;12.23;;;;;;;-144.65;100.00;64500.88;5071821;28;20064;-73
2022/03/08 07:58:11;;;;;;;34.03;16.33;;;;;;;-144.65;100.00;64500.88;5075842;28;20032;-73
2022/03/08 08:00:37;;;;;;;79.68;48.88;;;;;;;-144.65;100.00;64500.88;5080894;28;20035;-73
2022/03/08 08:03:03;;;;;;;12.38;7.53;;;;;;;-144.65;100.00;64500.88;5082793;28;20697;-74
2022/03/08 08:05:35;;;;;;;14.00;7.32;;;;;;;-144.65;100.00;64500.88;5081502;28;20039;-74
2022/03/08 08:08:02;;;;;;;12.52;6.63;;;;;;;-144.65;100.00;64500.88;5084141;28;20158;-73
2022/03/08 08:10:27;;;;;;;14.40;7.80;;;;;;;-144.65;100.00;64500.88;5090042;28;20035;-73
2022/03/08 08:12:53;;;;;;;11.52;7.88;;;;;;;-144.65;100.00;64500.88;5086755;28;20029;-73
2022/03/08 08:15:18;;;;;;;14.18;8.00;;;;;;;-144.65;100.00;64500.88;5081114;28;20012;-74
2022/03/08 08:17:44;;;;;;;10.93;8.30;;;;;;;-144.65;100.00;64500.88;5090557;28;20032;-74
2022/03/08 08:20:10;;;;;;;11.57;7.72;;;;;;;-144.65;100.00;64500.88;5091696;28;20024;-74
2022/03/08 08:22:36;;;;;;;11.13;7.82;;;;;;;-144.65;100.00;64500.88;5089931;28;20071;-73
2022/03/08 08:25:02;;;;;;;11.20;7.28;;;;;;;-144.65;100.00;64500.88;5085629;28;20020;-73
2022/03/08 08:27:28;;;;;;;13.30;8.00;;;;;;;-144.65;100.00;64500.88;5080856;28;20665;-73
2022/03/08 08:29:53;;;;;;;11.80;6.93;;;;;;;-144.65;100.00;64500.88;5081565;28;20105;-73
2022/03/08 08:32:18;;;;;;;13.30;7.47;;;;;;;-144.65;100.00;64500.88;5086488;28;20030;-74
2022/03/08 08:34:44;;;;;;;10.40;7.75;;;;;;;-144.65;100.00;64500.88;5092662;28;20055;-73
2022/03/08 08:37:11;;;;;;;10.32;7.00;;;;;;;-144.65;100.00;64500.88;5092424;28;20081;-74
2022/03/08 08:39:36;;;;;;;11.20;6.85;;;;;;;-144.65;100.00;64500.88;5089073;28;20738;-74
2022/03/08 08:42:02;;;;;;;11.82;7.43;;;;;;;-144.65;100.00;64500.88;5082676;28;20038;-75
2022/03/08 08:44:27;;;;;;;10.57;6.68;;;;;;;-144.65;100.00;64500.88;5082854;28;20028;-74
2022/03/08 08:46:53;;;;;;;10.23;6.65;;;;;;;-144.65;100.00;64500.88;5081247;28;20027;-75
2022/03/08 08:49:19;;;;;;;16.25;7.55;;;;;;;-144.65;100.00;64500.88;5082259;28;20115;-75
2022/03/08 08:51:44;;;;;;;9.95;6.78;;;;;;;-144.65;100.00;64500.88;5079251;28;20081;-74
2022/03/08 08:54:10;;;;;;;10.35;6.80;;;;;;;-144.65;100.00;64500.88;5080380;28;20441;-74
2022/03/08 08:56:35;;;;;;;12.98;7.00;;;;;;;-144.65;100.00;64500.88;5079496;28;20085;-75
2022/03/08 08:59:04;;;;;;;12.10;6.07;;;;;;;-144.65;100.00;64500.88;5073255;28;20021;-73
2022/03/08 09:01:31;;;;;;;10.00;5.55;;;;;;;-144.65;100.00;64500.88;5071319;28;20028;-72
2022/03/08 09:03:56;;;;;;;10.40;5.15;;;;;;;-144.65;100.00;64500.88;5081697;28;20027;-73
2022/03/08 09:06:21;;;;;;;7.15;4.63;;;;;;;-144.65;100.00;64500.88;5072610;28;20017;-73
2022/03/08 09:08:47;;;;;;;12.35;4.63;;;;;;;-144.65;100.00;64500.88;5074231;28;20120;-73
2022/03/08 09:11:12;;;;;;;10.98;4.82;;;;;;;-144.65;100.00;64500.88;5085688;28;20028;-78
2022/03/08 09:13:39;;;;;;;8.18;4.18;;;;;;;-144.65;100.00;64500.88;5082482;28;20037;-72
2022/03/08 09:16:05;;;;;;;7.25;4.35;;;;;;;-144.65;100.00;64500.88;5083630;28;20083;-73
2022/03/08 09:18:31;;;;;;;8.60;4.80;;;;;;;-144.65;100.00;64500.88;5077839;28;20035;-73
2022/03/08 09:20:56;;;;;;;9.57;4.72;;;;;;;-144.65;100.00;64500.88;5071365;28;20032;-74
2022/03/08 09:23:22;;;;;;;13.90;5.30;;;;;;;-144.65;100.00;64500.88;5083142;28;20058;-74
2022/03/08 09:25:48;;;;;;;12.82;5.68;;;;;;;-144.65;100.00;64500.88;5082723;28;20024;-74
2022/03/08 09:28:14;;;;;;;11.23;5.25;;;;;;;-144.65;100.00;64500.88;5086017;28;20488;-73
2022/03/08 09:30:41;;;;;;;7.90;4.78;;;;;;;-144.65;100.00;64500.88;5091962;28;20055;-74
2022/03/08 09:33:06;;;;;;;9.68;4.50;;;;;;;-144.65;100.00;64500.88;5092246;28;20090;-72
2022/03/08 09:35:35;;;;;;;10.18;4.63;;;;;;;-144.65;100.00;64500.88;5091199;28;20062;-72
2022/03/08 09:38:02;;;;;;;8.02;4.28;;;;;;;-144.65;100.00;64500.88;5091496;28;20024;-73
2022/03/08 09:40:30;;;;;;;14.52;5.95;;;;;;;-144.65;100.00;64500.88;5090832;28;20062;-73
2022/03/08 09:42:59;;;;;;;9.57;4.82;;;;;;;-144.65;100.00;64500.88;5089415;28;20028;-72
2022/03/08 09:45:25;;;;;;;9.55;4.47;;;;;;;-144.65;100.00;64500.88;5076396;28;20071;-73
2022/03/08 09:47:50;;;;;;;10.02;4.43;;;;;;;-144.65;100.00;64500.88;5070888;28;20059;-73
2022/03/08 09:50:17;;;;;;;7.22;4.05;;;;;;;-144.65;100.00;64500.88;5081042;28;20051;-73
2022/03/08 09:52:43;;;;;;;8.02;4.55;;;;;;;-144.65;100.00;64500.88;5085871;28;20545;-72
2022/03/08 09:55:14;;;;;;;10.98;5.03;;;;;;;-144.65;100.00;64500.88;5097737;28;20135;-72
2022/03/08 09:57:45;;;;;;;8.80;4.47;;;;;;;-144.65;100.00;64500.88;5086112;28;20055;-71
2022/03/08 10:00:11;;;;;;;14.45;4.60;;;;;;;-144.65;100.00;64500.88;5085932;28;20024;-73
2022/03/08 10:02:58;;;;;;;9.13;4.10;;;;;;;-144.65;100.00;64500.88;5083791;28;20670;-75
2022/03/08 10:05:27;;;;;;;8.60;4.95;;;;;;;-144.65;100.00;64500.88;5082570;28;20081;-73
2022/03/08 10:08:13;;;;;;;9.15;4.60;;;;;;;-144.65;100.00;64500.88;5082417;28;20020;-72
2022/03/08 10:10:42;;;;;;;13.35;5.60;;;;;;;-144.65;100.00;64500.88;5087480;28;20108;-74
2022/03/08 10:13:10;;;;;;;10.35;4.80;;;;;;;-144.65;100.00;64500.88;5087223;28;20024;-72
2022/03/08 10:15:36;;;;;;;11.40;4.88;;;;;;;-144.65;100.00;64500.88;5087963;28;20118;-72
2022/03/08 10:18:08;;;;;;;7.43;4.32;;;;;;;-144.65;100.00;64500.88;5084671;28;20027;-73
2022/03/08 10:20:35;;;;;;;6.93;4.18;;;;;;;-144.65;100.00;64500.88;5078743;28;20044;-73
2022/03/08 10:23:02;;;;;;;6.85;4.30;;;;;;;-144.65;100.00;64500.88;5085991;28;20056;-72
2022/03/08 10:25:30;;;;;;;8.45;5.00;;;;;;;-144.65;100.00;64500.88;5091249;28;20528;-73
2022/03/08 10:27:56;;;;;;;7.78;4.20;;;;;;;-144.65;100.00;64500.88;5090479;28;20027;-72
2022/03/08 10:30:22;;;;;;;6.55;4.03;;;;;;;-144.65;100.00;64500.88;5083131;28;20035;-78
2022/03/08 10:32:48;;;;;;;6.55;3.30;;;;;;;-144.65;100.00;64500.88;5077286;28;20145;-72
2022/03/08 10:35:29;;;;;;;7.38;3.90;;;;;;;-144.65;100.00;64500.88;5079190;28;20020;-72
2022/03/08 10:38:03;;;;;;;8.82;3.70;;;;;;;-144.65;100.00;64500.88;5072937;28;20027;-73
2022/03/08 10:40:32;;;;;;;8.37;4.03;;;;;;;-144.65;100.00;64500.88;5070367;28;20032;-73
2022/03/08 10:43:06;;;;;;;5.32;3.53;;;;;;;-144.65;100.00;64500.88;5070064;28;20797;-72
2022/03/08 10:45:35;;;;;;;6.43;3.38;;;;;;;-144.65;100.00;64500.88;5070375;28;20032;-77
2022/03/08 10:48:05;;;;;;;5.80;3.33;;;;;;;-144.65;100.00;64500.88;5077420;28;20039;-72
2022/03/08 10:50:34;;;;;;;8.18;3.70;;;;;;;-144.65;100.00;64500.88;5077727;28;20034;-72
2022/03/08 10:53:01;;;;;;;6.82;3.78;;;;;;;-144.65;100.00;64500.88;5085825;28;20044;-72